Terminal Aerodrome Forecast
Issued by NWS

Home | Current Version | Previous Version | Text Only | Print | Product List | Glossary On
Versions: 1 2 3 4 5 6 7 8 9 10 11 12
000
FTUS42 KGSP 271140
TAFAND
TAF
KAND 271140Z 2712/2812 VRB02KT P6SM BKN110
     FM271300 18003KT P6SM SCT060
     FM272000 24006KT P6SM VCTS BKN050CB
     FM272100 24006KT P6SM BKN050 PROB30 2721/2801 4SM -TSRA
      OVC025CB
     FM280100 VRB02KT P6SM BKN080
     FM281100 22003KT 4SM BR BKN080=

USA.gov is the U.S. government's official web portal to all federal, state and local government web resources and services.